sensor_id;sensor_type;location;lat;lon;timestamp;P1;durP1;ratioP1;P2;durP2;ratioP2
787;SDS011;16074;42.708;23.312;2023-03-01T00:01:20;5.78;;;4.07;;
787;SDS011;16074;42.708;23.312;2023-03-01T00:03:49;4.30;;;3.90;;
787;SDS011;16074;42.708;23.312;2023-03-01T00:06:19;5.20;;;4.70;;
787;SDS011;16074;42.708;23.312;2023-03-01T00:08:48;4.57;;;4.18;;
787;SDS011;16074;42.708;23.312;2023-03-01T00:11:17;3.75;;;3.47;;
787;SDS011;16074;42.708;23.312;2023-03-01T00:13:48;4.30;;;3.83;;
787;SDS011;16074;42.708;23.312;2023-03-01T00:16:25;5.32;;;4.82;;
787;SDS011;16074;42.708;23.312;2023-03-01T00:18:55;4.70;;;4.25;;
787;SDS011;16074;42.708;23.312;2023-03-01T00:21:24;4.10;;;3.80;;
787;SDS011;16074;42.708;23.312;2023-03-01T00:23:55;4.35;;;3.30;;
787;SDS011;16074;42.708;23.312;2023-03-01T00:26:24;2.90;;;2.67;;
787;SDS011;16074;42.708;23.312;2023-03-01T00:28:53;3.30;;;2.95;;
787;SDS011;16074;42.708;23.312;2023-03-01T00:31:24;2.95;;;2.75;;
787;SDS011;16074;42.708;23.312;2023-03-01T00:33:54;2.75;;;2.40;;
787;SDS011;16074;42.708;23.312;2023-03-01T00:36:24;2.85;;;2.65;;
787;SDS011;16074;42.708;23.312;2023-03-01T00:38:54;2.80;;;2.60;;
787;SDS011;16074;42.708;23.312;2023-03-01T00:41:23;3.20;;;2.97;;
787;SDS011;16074;42.708;23.312;2023-03-01T00:43:53;2.80;;;2.65;;
787;SDS011;16074;42.708;23.312;2023-03-01T00:46:24;6.65;;;3.25;;
787;SDS011;16074;42.708;23.312;2023-03-01T00:48:54;3.35;;;3.15;;
787;SDS011;16074;42.708;23.312;2023-03-01T00:51:23;3.13;;;2.92;;
787;SDS011;16074;42.708;23.312;2023-03-01T00:53:52;3.20;;;2.90;;
787;SDS011;16074;42.708;23.312;2023-03-01T00:56:24;2.83;;;2.65;;
787;SDS011;16074;42.708;23.312;2023-03-01T00:58:53;3.25;;;2.92;;
787;SDS011;16074;42.708;23.312;2023-03-01T01:01:21;3.30;;;3.00;;
787;SDS011;16074;42.708;23.312;2023-03-01T01:03:55;3.72;;;3.42;;
787;SDS011;16074;42.708;23.312;2023-03-01T01:06:25;3.42;;;3.13;;
787;SDS011;16074;42.708;23.312;2023-03-01T01:08:55;3.45;;;3.25;;
787;SDS011;16074;42.708;23.312;2023-03-01T01:11:25;3.78;;;3.47;;
787;SDS011;16074;42.708;23.312;2023-03-01T01:13:55;5.00;;;3.72;;
787;SDS011;16074;42.708;23.312;2023-03-01T01:16:27;3.13;;;2.92;;
787;SDS011;16074;42.708;23.312;2023-03-01T01:18:57;3.33;;;3.03;;
787;SDS011;16074;42.708;23.312;2023-03-01T01:21:27;3.55;;;3.25;;
787;SDS011;16074;42.708;23.312;2023-03-01T01:23:55;3.80;;;3.50;;
787;SDS011;16074;42.708;23.312;2023-03-01T01:26:25;3.65;;;3.35;;
787;SDS011;16074;42.708;23.312;2023-03-01T01:28:55;3.88;;;3.58;;
787;SDS011;16074;42.708;23.312;2023-03-01T01:31:25;3.72;;;3.42;;
787;SDS011;16074;42.708;23.312;2023-03-01T01:33:57;3.63;;;3.35;;
787;SDS011;16074;42.708;23.312;2023-03-01T01:36:26;3.40;;;3.15;;
787;SDS011;16074;42.708;23.312;2023-03-01T01:38:55;4.68;;;4.10;;
787;SDS011;16074;42.708;23.312;2023-03-01T01:41:24;3.80;;;3.58;;
787;SDS011;16074;42.708;23.312;2023-03-01T01:44:10;4.22;;;3.92;;
787;SDS011;16074;42.708;23.312;2023-03-01T01:46:42;4.07;;;3.75;;
787;SDS011;16074;42.708;23.312;2023-03-01T01:49:23;3.22;;;3.00;;
787;SDS011;16074;42.708;23.312;2023-03-01T01:51:57;3.28;;;3.00;;
787;SDS011;16074;42.708;23.312;2023-03-01T01:54:31;3.10;;;2.90;;
787;SDS011;16074;42.708;23.312;2023-03-01T01:57:07;3.55;;;3.30;;
787;SDS011;16074;42.708;23.312;2023-03-01T01:59:40;5.53;;;3.75;;
787;SDS011;16074;42.708;23.312;2023-03-01T02:02:14;3.58;;;3.30;;
787;SDS011;16074;42.708;23.312;2023-03-01T02:04:43;3.20;;;3.00;;
787;SDS011;16074;42.708;23.312;2023-03-01T02:07:14;3.13;;;2.90;;
787;SDS011;16074;42.708;23.312;2023-03-01T02:09:45;3.40;;;3.20;;
787;SDS011;16074;42.708;23.312;2023-03-01T02:12:14;2.70;;;2.50;;
787;SDS011;16074;42.708;23.312;2023-03-01T02:14:45;3.85;;;3.55;;
787;SDS011;16074;42.708;23.312;2023-03-01T02:17:15;2.55;;;2.45;;
787;SDS011;16074;42.708;23.312;2023-03-01T02:19:51;3.65;;;3.25;;
787;SDS011;16074;42.708;23.312;2023-03-01T02:22:34;2.90;;;2.70;;
787;SDS011;16074;42.708;23.312;2023-03-01T02:25:12;2.45;;;2.33;;
787;SDS011;16074;42.708;23.312;2023-03-01T02:27:58;2.90;;;2.78;;
787;SDS011;16074;42.708;23.312;2023-03-01T02:30:35;2.72;;;2.63;;
787;SDS011;16074;42.708;23.312;2023-03-01T02:33:24;3.70;;;3.40;;
787;SDS011;16074;42.708;23.312;2023-03-01T02:35:52;3.13;;;2.92;;
787;SDS011;16074;42.708;23.312;2023-03-01T02:38:22;3.10;;;2.90;;
787;SDS011;16074;42.708;23.312;2023-03-01T02:40:51;5.05;;;3.58;;
787;SDS011;16074;42.708;23.312;2023-03-01T02:43:22;3.70;;;3.45;;
787;SDS011;16074;42.708;23.312;2023-03-01T02:45:57;3.20;;;3.00;;
787;SDS011;16074;42.708;23.312;2023-03-01T02:48:26;3.08;;;2.88;;
787;SDS011;16074;42.708;23.312;2023-03-01T02:51:01;3.47;;;3.10;;
787;SDS011;16074;42.708;23.312;2023-03-01T02:53:38;4.07;;;3.67;;
787;SDS011;16074;42.708;23.312;2023-03-01T02:56:12;2.95;;;2.75;;
787;SDS011;16074;42.708;23.312;2023-03-01T02:58:41;2.63;;;2.42;;
787;SDS011;16074;42.708;23.312;2023-03-01T03:01:17;2.63;;;2.45;;
787;SDS011;16074;42.708;23.312;2023-03-01T03:03:45;4.60;;;2.72;;
787;SDS011;16074;42.708;23.312;2023-03-01T03:06:14;2.55;;;2.35;;
787;SDS011;16074;42.708;23.312;2023-03-01T03:08:43;4.07;;;2.70;;
787;SDS011;16074;42.708;23.312;2023-03-01T03:11:11;3.75;;;3.05;;
787;SDS011;16074;42.708;23.312;2023-03-01T03:13:40;3.00;;;2.80;;
787;SDS011;16074;42.708;23.312;2023-03-01T03:16:16;3.42;;;3.20;;
787;SDS011;16074;42.708;23.312;2023-03-01T03:18:44;3.80;;;3.47;;
787;SDS011;16074;42.708;23.312;2023-03-01T03:21:13;3.10;;;2.90;;
787;SDS011;16074;42.708;23.312;2023-03-01T03:23:42;3.50;;;3.20;;
787;SDS011;16074;42.708;23.312;2023-03-01T03:26:11;3.15;;;2.95;;
787;SDS011;16074;42.708;23.312;2023-03-01T03:28:41;4.38;;;3.17;;
787;SDS011;16074;42.708;23.312;2023-03-01T03:31:10;3.60;;;3.40;;
787;SDS011;16074;42.708;23.312;2023-03-01T03:33:40;3.25;;;3.08;;
787;SDS011;16074;42.708;23.312;2023-03-01T03:36:08;3.20;;;3.00;;
787;SDS011;16074;42.708;23.312;2023-03-01T03:38:39;3.35;;;3.00;;
787;SDS011;16074;42.708;23.312;2023-03-01T03:41:07;3.55;;;3.35;;
787;SDS011;16074;42.708;23.312;2023-03-01T03:43:36;3.80;;;3.50;;
787;SDS011;16074;42.708;23.312;2023-03-01T03:46:06;4.13;;;3.72;;
787;SDS011;16074;42.708;23.312;2023-03-01T03:48:35;3.30;;;3.00;;
787;SDS011;16074;42.708;23.312;2023-03-01T03:51:09;3.58;;;3.33;;
787;SDS011;16074;42.708;23.312;2023-03-01T03:53:38;3.42;;;3.20;;
787;SDS011;16074;42.708;23.312;2023-03-01T03:56:06;3.40;;;3.20;;
787;SDS011;16074;42.708;23.312;2023-03-01T03:58:35;4.53;;;3.83;;
787;SDS011;16074;42.708;23.312;2023-03-01T04:01:04;3.45;;;3.20;;
787;SDS011;16074;42.708;23.312;2023-03-01T04:03:32;3.30;;;3.10;;
787;SDS011;16074;42.708;23.312;2023-03-01T04:06:02;3.03;;;2.83;;
787;SDS011;16074;42.708;23.312;2023-03-01T04:08:32;3.10;;;2.80;;
787;SDS011;16074;42.708;23.312;2023-03-01T04:11:01;2.67;;;2.55;;
787;SDS011;16074;42.708;23.312;2023-03-01T04:13:52;3.20;;;2.90;;
787;SDS011;16074;42.708;23.312;2023-03-01T04:16:22;3.67;;;3.42;;
787;SDS011;16074;42.708;23.312;2023-03-01T04:18:50;2.63;;;2.45;;
787;SDS011;16074;42.708;23.312;2023-03-01T04:21:19;2.85;;;2.65;;
787;SDS011;16074;42.708;23.312;2023-03-01T04:23:49;3.13;;;2.92;;
787;SDS011;16074;42.708;23.312;2023-03-01T04:26:19;2.67;;;2.47;;
787;SDS011;16074;42.708;23.312;2023-03-01T04:28:48;2.70;;;2.50;;
787;SDS011;16074;42.708;23.312;2023-03-01T04:31:17;2.55;;;2.35;;
787;SDS011;16074;42.708;23.312;2023-03-01T04:33:48;2.70;;;2.50;;
787;SDS011;16074;42.708;23.312;2023-03-01T04:36:19;3.58;;;3.30;;
787;SDS011;16074;42.708;23.312;2023-03-01T04:38:51;2.85;;;2.75;;
787;SDS011;16074;42.708;23.312;2023-03-01T04:41:21;3.17;;;2.72;;
787;SDS011;16074;42.708;23.312;2023-03-01T04:43:50;2.20;;;2.10;;
787;SDS011;16074;42.708;23.312;2023-03-01T04:46:19;2.78;;;2.58;;
787;SDS011;16074;42.708;23.312;2023-03-01T04:48:48;3.70;;;3.42;;
787;SDS011;16074;42.708;23.312;2023-03-01T04:51:17;4.60;;;3.45;;
787;SDS011;16074;42.708;23.312;2023-03-01T04:53:45;3.95;;;3.55;;
787;SDS011;16074;42.708;23.312;2023-03-01T04:56:15;4.00;;;3.60;;
787;SDS011;16074;42.708;23.312;2023-03-01T04:58:44;3.67;;;3.40;;
787;SDS011;16074;42.708;23.312;2023-03-01T05:01:14;4.80;;;4.32;;
787;SDS011;16074;42.708;23.312;2023-03-01T05:03:44;3.90;;;3.60;;
787;SDS011;16074;42.708;23.312;2023-03-01T05:06:14;5.55;;;5.05;;
787;SDS011;16074;42.708;23.312;2023-03-01T05:08:43;5.38;;;4.60;;
787;SDS011;16074;42.708;23.312;2023-03-01T05:11:11;4.72;;;4.32;;
787;SDS011;16074;42.708;23.312;2023-03-01T05:13:41;4.32;;;3.92;;
787;SDS011;16074;42.708;23.312;2023-03-01T05:16:10;5.28;;;4.30;;
787;SDS011;16074;42.708;23.312;2023-03-01T05:18:39;4.75;;;4.35;;
787;SDS011;16074;42.708;23.312;2023-03-01T05:21:08;7.70;;;5.10;;
787;SDS011;16074;42.708;23.312;2023-03-01T05:23:38;7.68;;;6.07;;
787;SDS011;16074;42.708;23.312;2023-03-01T05:26:07;6.80;;;6.10;;
787;SDS011;16074;42.708;23.312;2023-03-01T05:28:54;6.70;;;5.28;;
787;SDS011;16074;42.708;23.312;2023-03-01T05:31:26;7.88;;;4.60;;
787;SDS011;16074;42.708;23.312;2023-03-01T05:33:54;7.05;;;5.22;;
787;SDS011;16074;42.708;23.312;2023-03-01T05:36:22;5.65;;;5.00;;
787;SDS011;16074;42.708;23.312;2023-03-01T05:38:51;6.53;;;4.55;;
787;SDS011;16074;42.708;23.312;2023-03-01T05:41:19;4.82;;;4.32;;
787;SDS011;16074;42.708;23.312;2023-03-01T05:43:47;4.63;;;4.22;;
787;SDS011;16074;42.708;23.312;2023-03-01T05:46:17;4.88;;;4.38;;
787;SDS011;16074;42.708;23.312;2023-03-01T05:48:46;5.13;;;4.63;;
787;SDS011;16074;42.708;23.312;2023-03-01T05:51:14;4.22;;;3.83;;
787;SDS011;16074;42.708;23.312;2023-03-01T05:53:44;5.38;;;4.82;;
787;SDS011;16074;42.708;23.312;2023-03-01T05:56:12;4.65;;;4.25;;
787;SDS011;16074;42.708;23.312;2023-03-01T05:58:40;8.02;;;4.15;;
787;SDS011;16074;42.708;23.312;2023-03-01T06:01:11;5.40;;;4.97;;
787;SDS011;16074;42.708;23.312;2023-03-01T06:03:42;5.65;;;5.15;;
787;SDS011;16074;42.708;23.312;2023-03-01T06:06:10;5.18;;;4.68;;
787;SDS011;16074;42.708;23.312;2023-03-01T06:08:38;6.40;;;4.50;;
787;SDS011;16074;42.708;23.312;2023-03-01T06:11:07;6.20;;;4.78;;
787;SDS011;16074;42.708;23.312;2023-03-01T06:13:35;8.57;;;5.63;;
787;SDS011;16074;42.708;23.312;2023-03-01T06:16:04;4.97;;;4.50;;
787;SDS011;16074;42.708;23.312;2023-03-01T06:18:33;5.63;;;4.97;;
787;SDS011;16074;42.708;23.312;2023-03-01T06:21:03;5.93;;;5.40;;
787;SDS011;16074;42.708;23.312;2023-03-01T06:23:33;6.53;;;4.90;;
787;SDS011;16074;42.708;23.312;2023-03-01T06:26:04;6.10;;;5.03;;
787;SDS011;16074;42.708;23.312;2023-03-01T06:28:34;5.97;;;4.63;;
787;SDS011;16074;42.708;23.312;2023-03-01T06:31:02;5.10;;;4.60;;
787;SDS011;16074;42.708;23.312;2023-03-01T06:33:35;5.38;;;4.88;;
787;SDS011;16074;42.708;23.312;2023-03-01T06:36:05;4.80;;;4.32;;
787;SDS011;16074;42.708;23.312;2023-03-01T06:38:34;6.50;;;4.47;;
787;SDS011;16074;42.708;23.312;2023-03-01T06:41:03;5.07;;;4.40;;
787;SDS011;16074;42.708;23.312;2023-03-01T06:43:31;5.38;;;4.53;;
787;SDS011;16074;42.708;23.312;2023-03-01T06:46:00;4.47;;;4.10;;
787;SDS011;16074;42.708;23.312;2023-03-01T06:48:33;7.20;;;5.05;;
787;SDS011;16074;42.708;23.312;2023-03-01T06:51:01;4.13;;;3.83;;
787;SDS011;16074;42.708;23.312;2023-03-01T06:53:31;4.53;;;4.05;;
787;SDS011;16074;42.708;23.312;2023-03-01T06:55:59;4.15;;;3.80;;
787;SDS011;16074;42.708;23.312;2023-03-01T06:58:28;5.85;;;3.92;;
787;SDS011;16074;42.708;23.312;2023-03-01T07:00:56;6.95;;;4.88;;
787;SDS011;16074;42.708;23.312;2023-03-01T07:03:25;5.40;;;4.90;;
787;SDS011;16074;42.708;23.312;2023-03-01T07:05:53;5.28;;;4.88;;
787;SDS011;16074;42.708;23.312;2023-03-01T07:08:21;6.10;;;5.50;;
787;SDS011;16074;42.708;23.312;2023-03-01T07:10:55;5.55;;;5.15;;
787;SDS011;16074;42.708;23.312;2023-03-01T07:13:24;5.07;;;4.20;;
787;SDS011;16074;42.708;23.312;2023-03-01T07:15:53;4.93;;;4.53;;
787;SDS011;16074;42.708;23.312;2023-03-01T07:18:21;5.80;;;5.18;;
787;SDS011;16074;42.708;23.312;2023-03-01T07:20:50;5.18;;;4.78;;
787;SDS011;16074;42.708;23.312;2023-03-01T07:23:18;5.50;;;5.00;;
787;SDS011;16074;42.708;23.312;2023-03-01T07:25:50;5.03;;;4.50;;
787;SDS011;16074;42.708;23.312;2023-03-01T07:28:21;4.60;;;4.20;;
787;SDS011;16074;42.708;23.312;2023-03-01T07:30:50;6.25;;;5.10;;
787;SDS011;16074;42.708;23.312;2023-03-01T07:33:18;7.15;;;5.80;;
787;SDS011;16074;42.708;23.312;2023-03-01T07:35:46;5.95;;;5.40;;
787;SDS011;16074;42.708;23.312;2023-03-01T07:38:15;7.68;;;6.00;;
787;SDS011;16074;42.708;23.312;2023-03-01T07:40:43;7.15;;;6.22;;
787;SDS011;16074;42.708;23.312;2023-03-01T07:43:11;9.38;;;5.82;;
787;SDS011;16074;42.708;23.312;2023-03-01T07:45:41;6.60;;;4.90;;
787;SDS011;16074;42.708;23.312;2023-03-01T07:48:09;5.40;;;4.88;;
787;SDS011;16074;42.708;23.312;2023-03-01T07:50:37;6.05;;;4.35;;
787;SDS011;16074;42.708;23.312;2023-03-01T07:53:06;3.97;;;3.67;;
787;SDS011;16074;42.708;23.312;2023-03-01T07:55:34;5.57;;;4.10;;
787;SDS011;16074;42.708;23.312;2023-03-01T07:58:02;6.40;;;4.30;;
787;SDS011;16074;42.708;23.312;2023-03-01T08:00:31;3.67;;;3.38;;
787;SDS011;16074;42.708;23.312;2023-03-01T08:03:00;4.47;;;4.13;;
787;SDS011;16074;42.708;23.312;2023-03-01T08:05:29;4.10;;;3.70;;
787;SDS011;16074;42.708;23.312;2023-03-01T08:07:58;5.97;;;3.70;;
787;SDS011;16074;42.708;23.312;2023-03-01T08:10:26;4.03;;;3.25;;
787;SDS011;16074;42.708;23.312;2023-03-01T08:12:54;3.50;;;3.22;;
787;SDS011;16074;42.708;23.312;2023-03-01T08:15:23;5.18;;;3.40;;
787;SDS011;16074;42.708;23.312;2023-03-01T08:17:51;4.72;;;3.42;;
787;SDS011;16074;42.708;23.312;2023-03-01T08:20:21;3.50;;;3.20;;
787;SDS011;16074;42.708;23.312;2023-03-01T08:22:49;4.07;;;3.70;;
787;SDS011;16074;42.708;23.312;2023-03-01T08:25:18;4.32;;;3.92;;
787;SDS011;16074;42.708;23.312;2023-03-01T08:27:46;4.13;;;3.33;;
787;SDS011;16074;42.708;23.312;2023-03-01T08:30:14;3.42;;;3.10;;
787;SDS011;16074;42.708;23.312;2023-03-01T08:32:43;4.65;;;3.38;;
787;SDS011;16074;42.708;23.312;2023-03-01T08:35:11;4.38;;;3.97;;
787;SDS011;16074;42.708;23.312;2023-03-01T08:37:41;4.50;;;3.65;;
787;SDS011;16074;42.708;23.312;2023-03-01T08:40:10;4.70;;;4.25;;
787;SDS011;16074;42.708;23.312;2023-03-01T08:42:40;5.28;;;4.75;;
787;SDS011;16074;42.708;23.312;2023-03-01T08:45:09;4.70;;;4.20;;
787;SDS011;16074;42.708;23.312;2023-03-01T08:47:39;3.60;;;3.30;;
787;SDS011;16074;42.708;23.312;2023-03-01T08:50:07;3.40;;;3.20;;
787;SDS011;16074;42.708;23.312;2023-03-01T08:52:36;6.63;;;3.60;;
787;SDS011;16074;42.708;23.312;2023-03-01T08:55:07;4.57;;;4.18;;
787;SDS011;16074;42.708;23.312;2023-03-01T08:57:36;4.93;;;4.60;;
787;SDS011;16074;42.708;23.312;2023-03-01T09:00:04;4.80;;;4.40;;
787;SDS011;16074;42.708;23.312;2023-03-01T09:02:35;3.95;;;3.35;;
787;SDS011;16074;42.708;23.312;2023-03-01T09:05:04;3.97;;;3.63;;
787;SDS011;16074;42.708;23.312;2023-03-01T09:07:33;4.30;;;4.00;;
787;SDS011;16074;42.708;23.312;2023-03-01T09:10:01;4.57;;;4.22;;
787;SDS011;16074;42.708;23.312;2023-03-01T09:12:31;4.38;;;3.30;;
787;SDS011;16074;42.708;23.312;2023-03-01T09:14:59;4.53;;;2.92;;
787;SDS011;16074;42.708;23.312;2023-03-01T09:17:28;3.65;;;3.45;;
787;SDS011;16074;42.708;23.312;2023-03-01T09:19:56;3.35;;;3.05;;
787;SDS011;16074;42.708;23.312;2023-03-01T09:22:26;3.47;;;3.15;;
787;SDS011;16074;42.708;23.312;2023-03-01T09:24:54;5.22;;;3.40;;
787;SDS011;16074;42.708;23.312;2023-03-01T09:27:25;4.93;;;4.38;;
787;SDS011;16074;42.708;23.312;2023-03-01T09:29:56;3.95;;;3.05;;
787;SDS011;16074;42.708;23.312;2023-03-01T09:32:24;5.35;;;3.45;;
787;SDS011;16074;42.708;23.312;2023-03-01T09:34:53;3.50;;;3.10;;
787;SDS011;16074;42.708;23.312;2023-03-01T09:37:33;3.25;;;3.05;;
787;SDS011;16074;42.708;23.312;2023-03-01T09:40:04;4.18;;;3.67;;
787;SDS011;16074;42.708;23.312;2023-03-01T09:42:34;2.88;;;2.67;;
787;SDS011;16074;42.708;23.312;2023-03-01T09:45:18;3.50;;;3.20;;
787;SDS011;16074;42.708;23.312;2023-03-01T09:47:54;3.33;;;3.03;;
787;SDS011;16074;42.708;23.312;2023-03-01T09:50:31;4.43;;;3.78;;
787;SDS011;16074;42.708;23.312;2023-03-01T09:53:03;3.78;;;3.15;;
787;SDS011;16074;42.708;23.312;2023-03-01T09:55:37;3.00;;;2.80;;
787;SDS011;16074;42.708;23.312;2023-03-01T09:58:17;3.28;;;2.97;;
787;SDS011;16074;42.708;23.312;2023-03-01T10:00:59;4.13;;;2.65;;
787;SDS011;16074;42.708;23.312;2023-03-01T10:03:33;7.38;;;4.80;;
787;SDS011;16074;42.708;23.312;2023-03-01T10:06:09;3.38;;;3.17;;
787;SDS011;16074;42.708;23.312;2023-03-01T10:09:00;4.13;;;2.60;;
787;SDS011;16074;42.708;23.312;2023-03-01T10:11:35;3.97;;;3.63;;
787;SDS011;16074;42.708;23.312;2023-03-01T10:14:09;2.80;;;2.60;;
787;SDS011;16074;42.708;23.312;2023-03-01T10:16:52;3.55;;;3.25;;
787;SDS011;16074;42.708;23.312;2023-03-01T10:19:26;3.60;;;3.30;;
787;SDS011;16074;42.708;23.312;2023-03-01T10:22:01;2.90;;;2.55;;
787;SDS011;16074;42.708;23.312;2023-03-01T10:24:35;4.75;;;3.13;;
787;SDS011;16074;42.708;23.312;2023-03-01T10:27:05;5.78;;;3.30;;
787;SDS011;16074;42.708;23.312;2023-03-01T10:29:38;2.92;;;2.35;;
787;SDS011;16074;42.708;23.312;2023-03-01T10:32:15;3.58;;;3.22;;
787;SDS011;16074;42.708;23.312;2023-03-01T10:34:45;8.00;;;3.00;;
787;SDS011;16074;42.708;23.312;2023-03-01T10:37:14;3.40;;;3.20;;
787;SDS011;16074;42.708;23.312;2023-03-01T10:39:54;2.90;;;2.70;;
787;SDS011;16074;42.708;23.312;2023-03-01T10:42:26;2.78;;;2.58;;
787;SDS011;16074;42.708;23.312;2023-03-01T10:44:57;4.20;;;2.78;;
787;SDS011;16074;42.708;23.312;2023-03-01T10:47:27;2.80;;;2.60;;
787;SDS011;16074;42.708;23.312;2023-03-01T10:49:58;2.70;;;2.60;;
787;SDS011;16074;42.708;23.312;2023-03-01T10:52:31;2.53;;;2.33;;
787;SDS011;16074;42.708;23.312;2023-03-01T10:55:02;2.30;;;2.10;;
787;SDS011;16074;42.708;23.312;2023-03-01T10:57:49;3.60;;;2.38;;
787;SDS011;16074;42.708;23.312;2023-03-01T11:00:22;2.15;;;1.70;;
787;SDS011;16074;42.708;23.312;2023-03-01T11:03:08;2.80;;;1.95;;
787;SDS011;16074;42.708;23.312;2023-03-01T11:05:53;1.92;;;1.83;;
787;SDS011;16074;42.708;23.312;2023-03-01T11:08:34;2.58;;;2.00;;
787;SDS011;16074;42.708;23.312;2023-03-01T11:11:06;3.38;;;2.05;;
787;SDS011;16074;42.708;23.312;2023-03-01T11:13:47;2.80;;;2.60;;
787;SDS011;16074;42.708;23.312;2023-03-01T11:16:23;2.25;;;2.10;;
787;SDS011;16074;42.708;23.312;2023-03-01T11:18:58;1.92;;;1.83;;
787;SDS011;16074;42.708;23.312;2023-03-01T11:21:29;2.42;;;2.25;;
787;SDS011;16074;42.708;23.312;2023-03-01T11:24:02;3.50;;;2.47;;
787;SDS011;16074;42.708;23.312;2023-03-01T11:26:37;2.78;;;2.47;;
787;SDS011;16074;42.708;23.312;2023-03-01T11:29:12;2.38;;;1.92;;
787;SDS011;16074;42.708;23.312;2023-03-01T11:31:45;2.40;;;2.30;;
787;SDS011;16074;42.708;23.312;2023-03-01T11:34:28;2.35;;;2.25;;
787;SDS011;16074;42.708;23.312;2023-03-01T11:37:09;2.53;;;2.25;;
787;SDS011;16074;42.708;23.312;2023-03-01T11:39:46;2.47;;;2.38;;
787;SDS011;16074;42.708;23.312;2023-03-01T11:42:21;2.67;;;1.77;;
787;SDS011;16074;42.708;23.312;2023-03-01T11:44:55;2.00;;;1.90;;
787;SDS011;16074;42.708;23.312;2023-03-01T11:47:32;3.35;;;2.38;;
787;SDS011;16074;42.708;23.312;2023-03-01T11:50:23;4.40;;;2.40;;
787;SDS011;16074;42.708;23.312;2023-03-01T11:52:59;2.30;;;2.10;;
787;SDS011;16074;42.708;23.312;2023-03-01T11:55:50;3.90;;;1.88;;
787;SDS011;16074;42.708;23.312;2023-03-01T11:58:29;2.33;;;2.13;;
787;SDS011;16074;42.708;23.312;2023-03-01T12:01:15;2.53;;;2.33;;
787;SDS011;16074;42.708;23.312;2023-03-01T12:03:58;1.58;;;1.45;;
787;SDS011;16074;42.708;23.312;2023-03-01T12:06:48;2.30;;;2.10;;
787;SDS011;16074;42.708;23.312;2023-03-01T12:09:27;2.95;;;2.75;;
787;SDS011;16074;42.708;23.312;2023-03-01T12:14:56;3.67;;;3.38;;
787;SDS011;16074;42.708;23.312;2023-03-01T12:17:42;2.63;;;2.38;;
787;SDS011;16074;42.708;23.312;2023-03-01T12:20:28;2.17;;;1.90;;
787;SDS011;16074;42.708;23.312;2023-03-01T12:23:08;3.95;;;2.25;;
787;SDS011;16074;42.708;23.312;2023-03-01T12:25:52;2.35;;;2.25;;
787;SDS011;16074;42.708;23.312;2023-03-01T12:28:40;3.47;;;2.53;;
787;SDS011;16074;42.708;23.312;2023-03-01T12:34:42;3.47;;;3.15;;
787;SDS011;16074;42.708;23.312;2023-03-01T12:37:39;2.85;;;2.65;;
787;SDS011;16074;42.708;23.312;2023-03-01T12:40:26;2.50;;;2.30;;
787;SDS011;16074;42.708;23.312;2023-03-01T12:43:07;2.70;;;2.50;;
787;SDS011;16074;42.708;23.312;2023-03-01T12:45:50;2.80;;;2.63;;
787;SDS011;16074;42.708;23.312;2023-03-01T12:48:31;3.20;;;2.88;;
787;SDS011;16074;42.708;23.312;2023-03-01T12:51:11;3.35;;;3.15;;
787;SDS011;16074;42.708;23.312;2023-03-01T12:53:43;4.40;;;3.40;;
787;SDS011;16074;42.708;23.312;2023-03-01T12:56:16;3.40;;;2.95;;
787;SDS011;16074;42.708;23.312;2023-03-01T12:58:50;4.15;;;3.10;;
787;SDS011;16074;42.708;23.312;2023-03-01T13:01:29;3.72;;;3.42;;
787;SDS011;16074;42.708;23.312;2023-03-01T13:04:12;3.50;;;3.28;;
787;SDS011;16074;42.708;23.312;2023-03-01T13:06:53;3.42;;;3.17;;
787;SDS011;16074;42.708;23.312;2023-03-01T13:09:30;4.03;;;3.63;;
787;SDS011;16074;42.708;23.312;2023-03-01T13:15:16;3.20;;;3.00;;
787;SDS011;16074;42.708;23.312;2023-03-01T13:17:53;3.90;;;3.60;;
787;SDS011;16074;42.708;23.312;2023-03-01T13:20:24;6.88;;;4.20;;
787;SDS011;16074;42.708;23.312;2023-03-01T13:23:03;4.90;;;4.55;;
787;SDS011;16074;42.708;23.312;2023-03-01T13:28:36;4.28;;;3.97;;
787;SDS011;16074;42.708;23.312;2023-03-01T13:31:10;4.07;;;3.78;;
787;SDS011;16074;42.708;23.312;2023-03-01T13:33:58;5.03;;;4.32;;
787;SDS011;16074;42.708;23.312;2023-03-01T13:36:46;4.45;;;4.05;;
787;SDS011;16074;42.708;23.312;2023-03-01T13:39:28;5.55;;;4.22;;
787;SDS011;16074;42.708;23.312;2023-03-01T13:42:00;5.00;;;4.60;;
787;SDS011;16074;42.708;23.312;2023-03-01T13:44:30;5.10;;;4.60;;
787;SDS011;16074;42.708;23.312;2023-03-01T13:47:06;4.35;;;4.05;;
787;SDS011;16074;42.708;23.312;2023-03-01T13:49:46;4.18;;;3.80;;
787;SDS011;16074;42.708;23.312;2023-03-01T13:52:24;3.75;;;3.55;;
787;SDS011;16074;42.708;23.312;2023-03-01T13:55:14;4.65;;;4.22;;
787;SDS011;16074;42.708;23.312;2023-03-01T13:57:46;4.72;;;3.35;;
787;SDS011;16074;42.708;23.312;2023-03-01T14:00:27;4.18;;;3.75;;
787;SDS011;16074;42.708;23.312;2023-03-01T14:03:10;5.38;;;3.90;;
787;SDS011;16074;42.708;23.312;2023-03-01T14:05:41;4.38;;;3.67;;
787;SDS011;16074;42.708;23.312;2023-03-01T14:08:18;4.45;;;4.05;;
787;SDS011;16074;42.708;23.312;2023-03-01T14:11:00;5.20;;;3.85;;
787;SDS011;16074;42.708;23.312;2023-03-01T14:13:54;7.07;;;5.43;;
787;SDS011;16074;42.708;23.312;2023-03-01T14:16:37;5.80;;;5.18;;
787;SDS011;16074;42.708;23.312;2023-03-01T14:19:17;4.40;;;4.10;;
787;SDS011;16074;42.708;23.312;2023-03-01T14:21:59;4.78;;;4.32;;
787;SDS011;16074;42.708;23.312;2023-03-01T14:24:39;4.63;;;4.22;;
787;SDS011;16074;42.708;23.312;2023-03-01T14:27:13;3.80;;;3.28;;
787;SDS011;16074;42.708;23.312;2023-03-01T14:29:42;4.80;;;4.40;;
787;SDS011;16074;42.708;23.312;2023-03-01T14:32:11;6.40;;;5.65;;
787;SDS011;16074;42.708;23.312;2023-03-01T14:34:47;5.57;;;5.05;;
787;SDS011;16074;42.708;23.312;2023-03-01T14:37:21;4.78;;;4.38;;
787;SDS011;16074;42.708;23.312;2023-03-01T14:39:50;5.45;;;5.05;;
787;SDS011;16074;42.708;23.312;2023-03-01T14:42:19;6.63;;;4.65;;
787;SDS011;16074;42.708;23.312;2023-03-01T14:44:50;5.65;;;4.25;;
787;SDS011;16074;42.708;23.312;2023-03-01T14:47:23;4.50;;;4.10;;
787;SDS011;16074;42.708;23.312;2023-03-01T14:49:57;10.23;;;5.03;;
787;SDS011;16074;42.708;23.312;2023-03-01T14:52:31;4.53;;;4.07;;
787;SDS011;16074;42.708;23.312;2023-03-01T14:55:04;5.13;;;3.75;;
787;SDS011;16074;42.708;23.312;2023-03-01T14:57:35;5.05;;;4.53;;
787;SDS011;16074;42.708;23.312;2023-03-01T15:00:03;6.78;;;5.00;;
787;SDS011;16074;42.708;23.312;2023-03-01T15:02:35;4.53;;;4.10;;
787;SDS011;16074;42.708;23.312;2023-03-01T15:05:07;4.93;;;4.45;;
787;SDS011;16074;42.708;23.312;2023-03-01T15:07:38;4.55;;;4.18;;
787;SDS011;16074;42.708;23.312;2023-03-01T15:10:14;4.82;;;3.70;;
787;SDS011;16074;42.708;23.312;2023-03-01T15:12:47;5.75;;;5.20;;
787;SDS011;16074;42.708;23.312;2023-03-01T15:15:19;8.63;;;5.57;;
787;SDS011;16074;42.708;23.312;2023-03-01T15:18:00;5.40;;;3.42;;
787;SDS011;16074;42.708;23.312;2023-03-01T15:20:31;4.47;;;4.07;;
787;SDS011;16074;42.708;23.312;2023-03-01T15:23:02;5.20;;;4.40;;
787;SDS011;16074;42.708;23.312;2023-03-01T15:25:32;4.80;;;4.40;;
787;SDS011;16074;42.708;23.312;2023-03-01T15:28:01;5.60;;;4.72;;
787;SDS011;16074;42.708;23.312;2023-03-01T15:30:31;4.10;;;3.70;;
787;SDS011;16074;42.708;23.312;2023-03-01T15:33:17;5.28;;;4.20;;
787;SDS011;16074;42.708;23.312;2023-03-01T15:35:59;6.43;;;5.32;;
787;SDS011;16074;42.708;23.312;2023-03-01T15:38:29;6.65;;;5.40;;
787;SDS011;16074;42.708;23.312;2023-03-01T15:41:05;5.07;;;4.57;;
787;SDS011;16074;42.708;23.312;2023-03-01T15:43:50;4.78;;;4.38;;
787;SDS011;16074;42.708;23.312;2023-03-01T15:46:22;7.40;;;4.60;;